sensor_id;sensor_type;location;lat;lon;timestamp;temperature;humidity
75262;DHT22;63859;51.064;4.580;2023-04-24T00:01:41;9.50;99.90
75262;DHT22;63859;51.064;4.580;2023-04-24T00:04:08;9.50;99.90
75262;DHT22;63859;51.064;4.580;2023-04-24T00:06:37;9.50;99.90
75262;DHT22;63859;51.064;4.580;2023-04-24T00:09:03;9.50;99.90
75262;DHT22;63859;51.064;4.580;2023-04-24T00:11:29;9.50;99.90
75262;DHT22;63859;51.064;4.580;2023-04-24T00:13:56;9.50;99.90
75262;DHT22;63859;51.064;4.580;2023-04-24T00:16:23;9.50;99.90
75262;DHT22;63859;51.064;4.580;2023-04-24T00:18:49;9.50;99.90
75262;DHT22;63859;51.064;4.580;2023-04-24T00:21:15;9.50;99.90
75262;DHT22;63859;51.064;4.580;2023-04-24T00:23:43;9.60;99.90
75262;DHT22;63859;51.064;4.580;2023-04-24T00:26:09;9.50;99.90
75262;DHT22;63859;51.064;4.580;2023-04-24T00:28:35;9.50;99.90
75262;DHT22;63859;51.064;4.580;2023-04-24T00:31:01;9.60;99.90
75262;DHT22;63859;51.064;4.580;2023-04-24T00:33:26;9.50;99.90
75262;DHT22;63859;51.064;4.580;2023-04-24T00:35:52;9.60;99.90
75262;DHT22;63859;51.064;4.580;2023-04-24T00:38:18;9.50;99.90
75262;DHT22;63859;51.064;4.580;2023-04-24T00:40:44;9.50;99.90
75262;DHT22;63859;51.064;4.580;2023-04-24T00:43:10;9.50;99.90
75262;DHT22;63859;51.064;4.580;2023-04-24T00:45:36;9.60;99.90
75262;DHT22;63859;51.064;4.580;2023-04-24T00:48:02;9.60;99.90
75262;DHT22;63859;51.064;4.580;2023-04-24T00:50:28;9.60;99.90
75262;DHT22;63859;51.064;4.580;2023-04-24T00:52:54;9.60;99.90
75262;DHT22;63859;51.064;4.580;2023-04-24T00:55:20;9.50;99.90
75262;DHT22;63859;51.064;4.580;2023-04-24T00:57:46;9.50;99.90
75262;DHT22;63859;51.064;4.580;2023-04-24T01:00:14;9.50;99.90
75262;DHT22;63859;51.064;4.580;2023-04-24T01:02:41;9.50;99.90
75262;DHT22;63859;51.064;4.580;2023-04-24T01:05:11;9.50;99.90
75262;DHT22;63859;51.064;4.580;2023-04-24T01:07:37;9.50;99.90
75262;DHT22;63859;51.064;4.580;2023-04-24T01:10:03;9.50;99.90
75262;DHT22;63859;51.064;4.580;2023-04-24T01:12:29;9.50;99.90
75262;DHT22;63859;51.064;4.580;2023-04-24T01:14:56;9.40;99.90
75262;DHT22;63859;51.064;4.580;2023-04-24T01:17:22;9.40;99.90
75262;DHT22;63859;51.064;4.580;2023-04-24T01:19:47;9.40;99.90
75262;DHT22;63859;51.064;4.580;2023-04-24T01:22:14;9.40;99.90
75262;DHT22;63859;51.064;4.580;2023-04-24T01:24:40;9.40;99.90
75262;DHT22;63859;51.064;4.580;2023-04-24T01:27:07;9.40;99.90
75262;DHT22;63859;51.064;4.580;2023-04-24T01:29:32;9.40;99.90
75262;DHT22;63859;51.064;4.580;2023-04-24T01:31:59;9.40;99.90
75262;DHT22;63859;51.064;4.580;2023-04-24T01:34:25;9.40;99.90
75262;DHT22;63859;51.064;4.580;2023-04-24T01:36:51;9.40;99.90
75262;DHT22;63859;51.064;4.580;2023-04-24T01:39:17;9.40;99.90
75262;DHT22;63859;51.064;4.580;2023-04-24T01:41:42;9.40;99.90
75262;DHT22;63859;51.064;4.580;2023-04-24T01:44:08;9.30;99.90
75262;DHT22;63859;51.064;4.580;2023-04-24T01:46:34;9.30;99.90
75262;DHT22;63859;51.064;4.580;2023-04-24T01:49:01;9.30;99.90
75262;DHT22;63859;51.064;4.580;2023-04-24T01:51:28;9.30;99.90
75262;DHT22;63859;51.064;4.580;2023-04-24T01:53:54;9.30;99.90
75262;DHT22;63859;51.064;4.580;2023-04-24T01:56:22;9.30;99.90
75262;DHT22;63859;51.064;4.580;2023-04-24T01:58:50;9.30;99.90
75262;DHT22;63859;51.064;4.580;2023-04-24T02:01:19;9.30;99.90
75262;DHT22;63859;51.064;4.580;2023-04-24T02:03:45;9.30;99.90
75262;DHT22;63859;51.064;4.580;2023-04-24T02:06:11;9.30;99.90
75262;DHT22;63859;51.064;4.580;2023-04-24T02:08:36;9.20;99.90
75262;DHT22;63859;51.064;4.580;2023-04-24T02:11:02;9.20;99.90
75262;DHT22;63859;51.064;4.580;2023-04-24T02:13:28;9.20;99.90
75262;DHT22;63859;51.064;4.580;2023-04-24T02:15:54;9.20;99.90
75262;DHT22;63859;51.064;4.580;2023-04-24T02:18:19;9.20;99.90
75262;DHT22;63859;51.064;4.580;2023-04-24T02:20:46;9.20;99.90
75262;DHT22;63859;51.064;4.580;2023-04-24T02:23:11;9.20;99.90
75262;DHT22;63859;51.064;4.580;2023-04-24T02:25:38;9.20;99.90
75262;DHT22;63859;51.064;4.580;2023-04-24T02:28:04;9.10;99.90
75262;DHT22;63859;51.064;4.580;2023-04-24T02:30:30;9.00;99.90
75262;DHT22;63859;51.064;4.580;2023-04-24T02:32:56;9.00;99.90
75262;DHT22;63859;51.064;4.580;2023-04-24T02:35:22;9.00;99.90
75262;DHT22;63859;51.064;4.580;2023-04-24T02:37:47;8.90;99.90
75262;DHT22;63859;51.064;4.580;2023-04-24T02:40:13;8.90;99.90
75262;DHT22;63859;51.064;4.580;2023-04-24T02:42:39;8.90;99.90
75262;DHT22;63859;51.064;4.580;2023-04-24T02:45:05;8.90;99.90
75262;DHT22;63859;51.064;4.580;2023-04-24T02:47:31;8.80;99.90
75262;DHT22;63859;51.064;4.580;2023-04-24T02:49:56;8.80;99.90
75262;DHT22;63859;51.064;4.580;2023-04-24T02:52:22;8.80;99.90
75262;DHT22;63859;51.064;4.580;2023-04-24T02:54:47;8.80;99.90
75262;DHT22;63859;51.064;4.580;2023-04-24T02:57:13;8.80;99.90
75262;DHT22;63859;51.064;4.580;2023-04-24T02:59:39;8.80;99.90
75262;DHT22;63859;51.064;4.580;2023-04-24T03:02:04;8.80;99.90
75262;DHT22;63859;51.064;4.580;2023-04-24T03:04:31;8.80;99.90
75262;DHT22;63859;51.064;4.580;2023-04-24T03:06:57;8.80;99.90
75262;DHT22;63859;51.064;4.580;2023-04-24T03:09:23;8.80;99.90
75262;DHT22;63859;51.064;4.580;2023-04-24T03:11:48;8.80;99.90
75262;DHT22;63859;51.064;4.580;2023-04-24T03:14:15;8.80;99.90
75262;DHT22;63859;51.064;4.580;2023-04-24T03:16:41;8.80;99.90
75262;DHT22;63859;51.064;4.580;2023-04-24T03:19:06;8.80;99.90
75262;DHT22;63859;51.064;4.580;2023-04-24T03:21:33;8.80;99.90
75262;DHT22;63859;51.064;4.580;2023-04-24T03:23:58;8.80;99.90
75262;DHT22;63859;51.064;4.580;2023-04-24T03:26:24;8.80;99.90
75262;DHT22;63859;51.064;4.580;2023-04-24T03:28:50;8.80;99.90
75262;DHT22;63859;51.064;4.580;2023-04-24T03:31:15;8.80;99.90
75262;DHT22;63859;51.064;4.580;2023-04-24T03:33:42;8.70;99.90
75262;DHT22;63859;51.064;4.580;2023-04-24T03:36:07;8.70;99.90
75262;DHT22;63859;51.064;4.580;2023-04-24T03:38:33;8.70;99.90
75262;DHT22;63859;51.064;4.580;2023-04-24T03:40:59;8.70;99.90
75262;DHT22;63859;51.064;4.580;2023-04-24T03:43:24;8.70;99.90
75262;DHT22;63859;51.064;4.580;2023-04-24T03:45:50;8.70;99.90
75262;DHT22;63859;51.064;4.580;2023-04-24T03:48:16;8.70;99.90
75262;DHT22;63859;51.064;4.580;2023-04-24T03:50:41;8.60;99.90
75262;DHT22;63859;51.064;4.580;2023-04-24T03:53:07;8.60;99.90
75262;DHT22;63859;51.064;4.580;2023-04-24T03:55:33;8.60;99.90
75262;DHT22;63859;51.064;4.580;2023-04-24T03:57:59;8.70;99.90
75262;DHT22;63859;51.064;4.580;2023-04-24T04:00:24;8.60;99.90
75262;DHT22;63859;51.064;4.580;2023-04-24T04:02:51;8.60;99.90
75262;DHT22;63859;51.064;4.580;2023-04-24T04:05:17;8.60;99.90
75262;DHT22;63859;51.064;4.580;2023-04-24T04:07:42;8.60;99.90
75262;DHT22;63859;51.064;4.580;2023-04-24T04:10:08;8.60;99.90
75262;DHT22;63859;51.064;4.580;2023-04-24T04:12:34;8.60;99.90
75262;DHT22;63859;51.064;4.580;2023-04-24T04:14:59;8.60;99.90
75262;DHT22;63859;51.064;4.580;2023-04-24T04:17:25;8.60;99.90
75262;DHT22;63859;51.064;4.580;2023-04-24T04:19:51;8.60;99.90
75262;DHT22;63859;51.064;4.580;2023-04-24T04:22:16;8.50;99.90
75262;DHT22;63859;51.064;4.580;2023-04-24T04:24:42;8.60;99.90
75262;DHT22;63859;51.064;4.580;2023-04-24T04:27:08;8.60;99.90
75262;DHT22;63859;51.064;4.580;2023-04-24T04:29:34;8.60;99.90
75262;DHT22;63859;51.064;4.580;2023-04-24T04:32:01;8.50;99.90
75262;DHT22;63859;51.064;4.580;2023-04-24T04:34:27;8.60;99.90
75262;DHT22;63859;51.064;4.580;2023-04-24T04:36:53;8.50;99.90
75262;DHT22;63859;51.064;4.580;2023-04-24T04:39:19;8.50;99.90
75262;DHT22;63859;51.064;4.580;2023-04-24T04:41:45;8.50;99.90
75262;DHT22;63859;51.064;4.580;2023-04-24T04:44:14;8.50;99.90
75262;DHT22;63859;51.064;4.580;2023-04-24T04:46:40;8.50;99.90
75262;DHT22;63859;51.064;4.580;2023-04-24T04:49:07;8.50;99.90
75262;DHT22;63859;51.064;4.580;2023-04-24T04:51:34;8.40;99.90
75262;DHT22;63859;51.064;4.580;2023-04-24T04:54:00;8.40;99.90
75262;DHT22;63859;51.064;4.580;2023-04-24T04:56:25;8.40;99.90
75262;DHT22;63859;51.064;4.580;2023-04-24T04:58:51;8.40;99.90
75262;DHT22;63859;51.064;4.580;2023-04-24T05:01:17;8.40;99.90
75262;DHT22;63859;51.064;4.580;2023-04-24T05:03:43;8.40;99.90
75262;DHT22;63859;51.064;4.580;2023-04-24T05:06:08;8.40;99.90
75262;DHT22;63859;51.064;4.580;2023-04-24T05:08:34;8.30;99.90
75262;DHT22;63859;51.064;4.580;2023-04-24T05:11:00;8.30;99.90
75262;DHT22;63859;51.064;4.580;2023-04-24T05:13:26;8.30;99.90
75262;DHT22;63859;51.064;4.580;2023-04-24T05:15:52;8.30;99.90
75262;DHT22;63859;51.064;4.580;2023-04-24T05:18:17;8.30;99.90
75262;DHT22;63859;51.064;4.580;2023-04-24T05:20:43;8.30;99.90
75262;DHT22;63859;51.064;4.580;2023-04-24T05:23:09;8.30;99.90
75262;DHT22;63859;51.064;4.580;2023-04-24T05:25:35;8.30;99.90
75262;DHT22;63859;51.064;4.580;2023-04-24T05:28:01;8.30;99.90
75262;DHT22;63859;51.064;4.580;2023-04-24T05:30:28;8.20;99.90
75262;DHT22;63859;51.064;4.580;2023-04-24T05:32:53;8.20;99.90
75262;DHT22;63859;51.064;4.580;2023-04-24T05:35:19;8.20;99.90
75262;DHT22;63859;51.064;4.580;2023-04-24T05:37:45;8.20;99.90
75262;DHT22;63859;51.064;4.580;2023-04-24T05:40:11;8.20;99.90
75262;DHT22;63859;51.064;4.580;2023-04-24T05:42:37;8.20;99.90
75262;DHT22;63859;51.064;4.580;2023-04-24T05:45:03;8.20;99.90
75262;DHT22;63859;51.064;4.580;2023-04-24T05:47:29;8.20;99.90
75262;DHT22;63859;51.064;4.580;2023-04-24T05:49:54;8.20;99.90
75262;DHT22;63859;51.064;4.580;2023-04-24T05:52:20;8.20;99.90
75262;DHT22;63859;51.064;4.580;2023-04-24T05:54:46;8.20;99.90
75262;DHT22;63859;51.064;4.580;2023-04-24T05:57:11;8.20;99.90
75262;DHT22;63859;51.064;4.580;2023-04-24T05:59:37;8.20;99.90
75262;DHT22;63859;51.064;4.580;2023-04-24T06:02:07;8.20;99.90
75262;DHT22;63859;51.064;4.580;2023-04-24T06:04:33;8.20;99.90
75262;DHT22;63859;51.064;4.580;2023-04-24T06:06:59;8.20;99.90
75262;DHT22;63859;51.064;4.580;2023-04-24T06:09:25;8.20;99.90
75262;DHT22;63859;51.064;4.580;2023-04-24T06:11:51;8.20;99.90
75262;DHT22;63859;51.064;4.580;2023-04-24T06:14:20;8.10;99.90
75262;DHT22;63859;51.064;4.580;2023-04-24T06:16:46;8.20;99.90
75262;DHT22;63859;51.064;4.580;2023-04-24T06:19:12;8.20;99.90
75262;DHT22;63859;51.064;4.580;2023-04-24T06:21:37;8.20;99.90
75262;DHT22;63859;51.064;4.580;2023-04-24T06:24:03;8.20;99.90
75262;DHT22;63859;51.064;4.580;2023-04-24T06:26:30;8.20;99.90
75262;DHT22;63859;51.064;4.580;2023-04-24T06:28:55;8.20;99.90
75262;DHT22;63859;51.064;4.580;2023-04-24T06:31:21;8.20;99.90
75262;DHT22;63859;51.064;4.580;2023-04-24T06:33:48;8.20;99.90
75262;DHT22;63859;51.064;4.580;2023-04-24T06:36:15;8.20;99.90
75262;DHT22;63859;51.064;4.580;2023-04-24T06:38:41;8.20;99.90
75262;DHT22;63859;51.064;4.580;2023-04-24T06:41:06;8.20;99.90
75262;DHT22;63859;51.064;4.580;2023-04-24T06:43:33;8.20;99.90
75262;DHT22;63859;51.064;4.580;2023-04-24T06:45:59;8.20;99.90
75262;DHT22;63859;51.064;4.580;2023-04-24T06:48:25;8.20;99.90
75262;DHT22;63859;51.064;4.580;2023-04-24T06:50:51;8.20;99.90
75262;DHT22;63859;51.064;4.580;2023-04-24T06:53:17;8.20;99.90
75262;DHT22;63859;51.064;4.580;2023-04-24T06:55:43;8.20;99.90
75262;DHT22;63859;51.064;4.580;2023-04-24T06:58:10;8.20;99.90
75262;DHT22;63859;51.064;4.580;2023-04-24T07:00:36;8.30;99.90
75262;DHT22;63859;51.064;4.580;2023-04-24T07:03:02;8.20;99.90
75262;DHT22;63859;51.064;4.580;2023-04-24T07:05:28;8.20;99.90
75262;DHT22;63859;51.064;4.580;2023-04-24T07:07:54;8.30;99.90
75262;DHT22;63859;51.064;4.580;2023-04-24T07:10:20;8.30;99.90
75262;DHT22;63859;51.064;4.580;2023-04-24T07:12:46;8.30;99.90
75262;DHT22;63859;51.064;4.580;2023-04-24T07:15:12;8.30;99.90
75262;DHT22;63859;51.064;4.580;2023-04-24T07:17:38;8.30;99.90
75262;DHT22;63859;51.064;4.580;2023-04-24T07:20:04;8.30;99.90
75262;DHT22;63859;51.064;4.580;2023-04-24T07:22:30;8.30;99.90
75262;DHT22;63859;51.064;4.580;2023-04-24T07:24:56;8.40;99.90
75262;DHT22;63859;51.064;4.580;2023-04-24T07:27:22;8.40;99.90
75262;DHT22;63859;51.064;4.580;2023-04-24T07:29:47;8.40;99.90
75262;DHT22;63859;51.064;4.580;2023-04-24T07:32:13;8.50;99.90
75262;DHT22;63859;51.064;4.580;2023-04-24T07:34:39;8.60;99.90
75262;DHT22;63859;51.064;4.580;2023-04-24T07:37:05;8.60;99.90
75262;DHT22;63859;51.064;4.580;2023-04-24T07:39:31;8.60;99.90
75262;DHT22;63859;51.064;4.580;2023-04-24T07:41:57;8.70;99.90
75262;DHT22;63859;51.064;4.580;2023-04-24T07:44:24;8.80;99.90
75262;DHT22;63859;51.064;4.580;2023-04-24T07:46:50;8.80;99.90
75262;DHT22;63859;51.064;4.580;2023-04-24T07:49:16;8.80;99.90
75262;DHT22;63859;51.064;4.580;2023-04-24T07:51:41;8.80;99.90
75262;DHT22;63859;51.064;4.580;2023-04-24T07:54:07;8.90;99.90
75262;DHT22;63859;51.064;4.580;2023-04-24T07:56:33;8.90;99.90
75262;DHT22;63859;51.064;4.580;2023-04-24T07:58:59;9.00;99.90
75262;DHT22;63859;51.064;4.580;2023-04-24T08:01:26;9.10;99.90
75262;DHT22;63859;51.064;4.580;2023-04-24T08:03:52;9.10;99.90
75262;DHT22;63859;51.064;4.580;2023-04-24T08:06:18;9.10;99.90
75262;DHT22;63859;51.064;4.580;2023-04-24T08:08:43;9.20;99.90
75262;DHT22;63859;51.064;4.580;2023-04-24T08:11:09;9.20;99.90
75262;DHT22;63859;51.064;4.580;2023-04-24T08:13:35;9.20;99.90
75262;DHT22;63859;51.064;4.580;2023-04-24T08:16:00;9.10;99.90
75262;DHT22;63859;51.064;4.580;2023-04-24T08:18:26;9.10;99.90
75262;DHT22;63859;51.064;4.580;2023-04-24T08:20:52;9.10;99.90
75262;DHT22;63859;51.064;4.580;2023-04-24T08:23:17;9.10;99.90
75262;DHT22;63859;51.064;4.580;2023-04-24T08:25:43;9.10;99.90
75262;DHT22;63859;51.064;4.580;2023-04-24T08:28:09;9.20;99.90
75262;DHT22;63859;51.064;4.580;2023-04-24T08:30:36;9.20;99.90
75262;DHT22;63859;51.064;4.580;2023-04-24T08:33:03;9.30;99.90
75262;DHT22;63859;51.064;4.580;2023-04-24T08:35:28;9.30;99.90
75262;DHT22;63859;51.064;4.580;2023-04-24T08:37:54;9.40;99.90
75262;DHT22;63859;51.064;4.580;2023-04-24T08:40:25;9.40;99.90
75262;DHT22;63859;51.064;4.580;2023-04-24T08:42:54;9.40;99.90
75262;DHT22;63859;51.064;4.580;2023-04-24T08:45:22;9.50;99.90
75262;DHT22;63859;51.064;4.580;2023-04-24T08:47:48;9.60;99.90
75262;DHT22;63859;51.064;4.580;2023-04-24T08:50:15;9.70;99.90
75262;DHT22;63859;51.064;4.580;2023-04-24T08:52:42;9.70;99.90
75262;DHT22;63859;51.064;4.580;2023-04-24T08:55:08;9.70;99.90
75262;DHT22;63859;51.064;4.580;2023-04-24T08:57:35;9.80;99.90
75262;DHT22;63859;51.064;4.580;2023-04-24T09:00:01;9.70;99.90
75262;DHT22;63859;51.064;4.580;2023-04-24T09:02:27;9.70;99.90
75262;DHT22;63859;51.064;4.580;2023-04-24T09:04:55;9.60;99.90
75262;DHT22;63859;51.064;4.580;2023-04-24T09:07:24;9.70;99.90
75262;DHT22;63859;51.064;4.580;2023-04-24T09:09:51;9.70;99.90
75262;DHT22;63859;51.064;4.580;2023-04-24T09:12:17;9.80;99.90
75262;DHT22;63859;51.064;4.580;2023-04-24T09:14:44;9.80;99.90
75262;DHT22;63859;51.064;4.580;2023-04-24T09:17:11;9.80;99.90
75262;DHT22;63859;51.064;4.580;2023-04-24T09:19:37;9.80;99.90
75262;DHT22;63859;51.064;4.580;2023-04-24T09:22:06;9.80;99.90
75262;DHT22;63859;51.064;4.580;2023-04-24T09:24:34;9.80;99.90
75262;DHT22;63859;51.064;4.580;2023-04-24T09:27:01;9.70;99.90
75262;DHT22;63859;51.064;4.580;2023-04-24T09:29:29;9.70;99.90
75262;DHT22;63859;51.064;4.580;2023-04-24T09:31:55;9.70;99.90
75262;DHT22;63859;51.064;4.580;2023-04-24T09:34:25;9.80;99.90
75262;DHT22;63859;51.064;4.580;2023-04-24T09:36:52;9.80;99.90
75262;DHT22;63859;51.064;4.580;2023-04-24T09:39:18;10.10;99.90
75262;DHT22;63859;51.064;4.580;2023-04-24T09:41:54;10.40;99.90
75262;DHT22;63859;51.064;4.580;2023-04-24T09:44:27;10.60;99.90
75262;DHT22;63859;51.064;4.580;2023-04-24T09:46:58;10.70;99.90
75262;DHT22;63859;51.064;4.580;2023-04-24T09:49:26;10.60;99.90
75262;DHT22;63859;51.064;4.580;2023-04-24T09:52:14;10.50;99.90
75262;DHT22;63859;51.064;4.580;2023-04-24T09:54:39;10.40;99.90
75262;DHT22;63859;51.064;4.580;2023-04-24T09:57:07;10.40;99.90
75262;DHT22;63859;51.064;4.580;2023-04-24T09:59:33;10.40;99.90
75262;DHT22;63859;51.064;4.580;2023-04-24T10:01:59;10.50;99.90
75262;DHT22;63859;51.064;4.580;2023-04-24T10:04:27;10.60;99.90
75262;DHT22;63859;51.064;4.580;2023-04-24T10:06:55;10.70;99.90
75262;DHT22;63859;51.064;4.580;2023-04-24T10:09:24;10.70;99.90
75262;DHT22;63859;51.064;4.580;2023-04-24T10:11:51;10.60;99.90
75262;DHT22;63859;51.064;4.580;2023-04-24T10:14:20;10.70;99.90
75262;DHT22;63859;51.064;4.580;2023-04-24T10:16:47;10.70;99.90
75262;DHT22;63859;51.064;4.580;2023-04-24T10:19:14;10.70;99.90
75262;DHT22;63859;51.064;4.580;2023-04-24T10:21:42;10.80;99.90
75262;DHT22;63859;51.064;4.580;2023-04-24T10:24:13;10.90;99.90
75262;DHT22;63859;51.064;4.580;2023-04-24T10:26:40;10.80;99.90
75262;DHT22;63859;51.064;4.580;2023-04-24T10:29:06;10.70;99.90
75262;DHT22;63859;51.064;4.580;2023-04-24T10:31:40;10.60;99.90
75262;DHT22;63859;51.064;4.580;2023-04-24T10:34:07;10.70;99.90
75262;DHT22;63859;51.064;4.580;2023-04-24T10:36:34;10.80;99.90
75262;DHT22;63859;51.064;4.580;2023-04-24T10:39:03;10.70;99.90
75262;DHT22;63859;51.064;4.580;2023-04-24T10:41:31;10.70;99.90
75262;DHT22;63859;51.064;4.580;2023-04-24T10:44:12;10.60;99.90
75262;DHT22;63859;51.064;4.580;2023-04-24T10:46:39;10.60;99.90
75262;DHT22;63859;51.064;4.580;2023-04-24T10:49:08;10.70;99.90
75262;DHT22;63859;51.064;4.580;2023-04-24T10:52:03;10.80;99.90
75262;DHT22;63859;51.064;4.580;2023-04-24T10:59:46;10.80;99.90
75262;DHT22;63859;51.064;4.580;2023-04-24T11:02:15;10.80;99.90
75262;DHT22;63859;51.064;4.580;2023-04-24T11:04:41;10.90;99.90
75262;DHT22;63859;51.064;4.580;2023-04-24T11:07:09;11.00;99.90
75262;DHT22;63859;51.064;4.580;2023-04-24T11:09:35;11.10;99.90
75262;DHT22;63859;51.064;4.580;2023-04-24T11:12:10;11.30;99.90
75262;DHT22;63859;51.064;4.580;2023-04-24T11:17:32;11.60;99.90
75262;DHT22;63859;51.064;4.580;2023-04-24T11:22:36;11.40;99.90
75262;DHT22;63859;51.064;4.580;2023-04-24T11:25:05;11.20;99.90
75262;DHT22;63859;51.064;4.580;2023-04-24T11:27:39;11.20;99.90
75262;DHT22;63859;51.064;4.580;2023-04-24T11:30:06;11.20;99.90
75262;DHT22;63859;51.064;4.580;2023-04-24T11:32:42;11.20;99.90
75262;DHT22;63859;51.064;4.580;2023-04-24T11:35:15;11.60;99.90
75262;DHT22;63859;51.064;4.580;2023-04-24T11:37:43;11.70;99.90
75262;DHT22;63859;51.064;4.580;2023-04-24T11:40:12;11.60;99.90
75262;DHT22;63859;51.064;4.580;2023-04-24T11:42:40;11.50;99.90
75262;DHT22;63859;51.064;4.580;2023-04-24T11:45:14;11.50;99.90
75262;DHT22;63859;51.064;4.580;2023-04-24T11:47:41;11.80;99.90
75262;DHT22;63859;51.064;4.580;2023-04-24T11:50:10;12.20;99.90
75262;DHT22;63859;51.064;4.580;2023-04-24T11:52:41;12.50;99.90
75262;DHT22;63859;51.064;4.580;2023-04-24T11:57:49;12.00;99.90
75262;DHT22;63859;51.064;4.580;2023-04-24T12:00:20;11.90;99.90
75262;DHT22;63859;51.064;4.580;2023-04-24T12:02:46;11.70;99.90
75262;DHT22;63859;51.064;4.580;2023-04-24T12:05:28;11.50;99.90
75262;DHT22;63859;51.064;4.580;2023-04-24T12:07:56;11.50;99.90
75262;DHT22;63859;51.064;4.580;2023-04-24T12:10:26;11.30;99.90
75262;DHT22;63859;51.064;4.580;2023-04-24T12:12:53;11.30;99.90
75262;DHT22;63859;51.064;4.580;2023-04-24T12:15:20;11.20;99.90
75262;DHT22;63859;51.064;4.580;2023-04-24T12:17:46;11.30;99.90
75262;DHT22;63859;51.064;4.580;2023-04-24T12:20:13;11.40;99.90
75262;DHT22;63859;51.064;4.580;2023-04-24T12:22:56;11.60;99.90
75262;DHT22;63859;51.064;4.580;2023-04-24T12:25:23;11.90;99.90
75262;DHT22;63859;51.064;4.580;2023-04-24T12:30:32;12.00;99.90
75262;DHT22;63859;51.064;4.580;2023-04-24T12:32:59;12.10;99.90
75262;DHT22;63859;51.064;4.580;2023-04-24T12:35:27;12.70;99.90
75262;DHT22;63859;51.064;4.580;2023-04-24T12:37:53;13.10;99.90
75262;DHT22;63859;51.064;4.580;2023-04-24T12:40:21;13.40;99.90
75262;DHT22;63859;51.064;4.580;2023-04-24T12:42:51;13.30;99.90
75262;DHT22;63859;51.064;4.580;2023-04-24T12:45:18;13.20;99.90
75262;DHT22;63859;51.064;4.580;2023-04-24T12:47:45;12.90;99.90
75262;DHT22;63859;51.064;4.580;2023-04-24T12:50:13;13.40;99.90
75262;DHT22;63859;51.064;4.580;2023-04-24T12:52:39;13.90;99.90
75262;DHT22;63859;51.064;4.580;2023-04-24T12:55:06;14.30;99.90
75262;DHT22;63859;51.064;4.580;2023-04-24T12:57:35;14.70;99.90
75262;DHT22;63859;51.064;4.580;2023-04-24T13:00:01;14.20;99.90
75262;DHT22;63859;51.064;4.580;2023-04-24T13:02:29;13.80;99.90
75262;DHT22;63859;51.064;4.580;2023-04-24T13:04:57;13.60;99.90
75262;DHT22;63859;51.064;4.580;2023-04-24T13:07:23;13.20;99.90
75262;DHT22;63859;51.064;4.580;2023-04-24T13:09:50;13.00;99.90
75262;DHT22;63859;51.064;4.580;2023-04-24T13:12:16;13.00;99.90
75262;DHT22;63859;51.064;4.580;2023-04-24T13:14:42;13.00;99.90
75262;DHT22;63859;51.064;4.580;2023-04-24T13:17:08;13.20;99.90
75262;DHT22;63859;51.064;4.580;2023-04-24T13:19:39;13.20;99.90
75262;DHT22;63859;51.064;4.580;2023-04-24T13:22:05;13.80;99.90
75262;DHT22;63859;51.064;4.580;2023-04-24T13:24:31;14.40;99.90
75262;DHT22;63859;51.064;4.580;2023-04-24T13:26:57;15.00;99.90
75262;DHT22;63859;51.064;4.580;2023-04-24T13:29:23;15.40;99.90
75262;DHT22;63859;51.064;4.580;2023-04-24T13:31:53;15.10;99.90
75262;DHT22;63859;51.064;4.580;2023-04-24T13:34:24;14.60;99.90
75262;DHT22;63859;51.064;4.580;2023-04-24T13:36:50;14.70;99.90
75262;DHT22;63859;51.064;4.580;2023-04-24T13:39:17;15.20;99.90
75262;DHT22;63859;51.064;4.580;2023-04-24T13:41:42;15.40;99.90
75262;DHT22;63859;51.064;4.580;2023-04-24T13:44:08;15.40;99.90
75262;DHT22;63859;51.064;4.580;2023-04-24T13:46:34;15.50;99.90
75262;DHT22;63859;51.064;4.580;2023-04-24T13:49:01;15.30;99.90
75262;DHT22;63859;51.064;4.580;2023-04-24T13:51:27;15.50;99.90
75262;DHT22;63859;51.064;4.580;2023-04-24T13:53:53;15.80;99.90
75262;DHT22;63859;51.064;4.580;2023-04-24T13:56:19;16.10;99.90
75262;DHT22;63859;51.064;4.580;2023-04-24T13:58:45;15.90;99.90
75262;DHT22;63859;51.064;4.580;2023-04-24T14:01:12;15.80;99.90
75262;DHT22;63859;51.064;4.580;2023-04-24T14:03:38;15.50;99.90
75262;DHT22;63859;51.064;4.580;2023-04-24T14:06:04;15.40;99.90
75262;DHT22;63859;51.064;4.580;2023-04-24T14:08:30;15.70;99.90
75262;DHT22;63859;51.064;4.580;2023-04-24T14:10:55;16.20;99.90
75262;DHT22;63859;51.064;4.580;2023-04-24T14:13:21;15.80;99.90
75262;DHT22;63859;51.064;4.580;2023-04-24T14:15:47;15.70;99.90
75262;DHT22;63859;51.064;4.580;2023-04-24T14:18:13;15.50;99.90
75262;DHT22;63859;51.064;4.580;2023-04-24T14:20:38;15.50;99.90
75262;DHT22;63859;51.064;4.580;2023-04-24T14:23:04;15.10;99.90
75262;DHT22;63859;51.064;4.580;2023-04-24T14:25:30;14.60;99.90
75262;DHT22;63859;51.064;4.580;2023-04-24T14:27:55;14.60;99.90
75262;DHT22;63859;51.064;4.580;2023-04-24T14:30:21;15.20;99.90
75262;DHT22;63859;51.064;4.580;2023-04-24T14:32:47;15.20;99.90
75262;DHT22;63859;51.064;4.580;2023-04-24T14:35:13;15.20;99.90
75262;DHT22;63859;51.064;4.580;2023-04-24T14:37:39;15.60;99.90
75262;DHT22;63859;51.064;4.580;2023-04-24T14:40:07;15.70;99.90
75262;DHT22;63859;51.064;4.580;2023-04-24T14:42:33;15.40;99.90
75262;DHT22;63859;51.064;4.580;2023-04-24T14:44:59;15.00;99.90
75262;DHT22;63859;51.064;4.580;2023-04-24T14:47:25;15.30;99.90
75262;DHT22;63859;51.064;4.580;2023-04-24T14:49:51;15.70;99.90
75262;DHT22;63859;51.064;4.580;2023-04-24T14:52:17;16.30;99.90
75262;DHT22;63859;51.064;4.580;2023-04-24T14:54:43;16.70;96.80
75262;DHT22;63859;51.064;4.580;2023-04-24T14:57:09;16.50;98.40
75262;DHT22;63859;51.064;4.580;2023-04-24T14:59:35;16.10;98.00
75262;DHT22;63859;51.064;4.580;2023-04-24T15:02:01;15.50;97.50
75262;DHT22;63859;51.064;4.580;2023-04-24T15:04:28;15.80;99.00
75262;DHT22;63859;51.064;4.580;2023-04-24T15:06:56;16.10;98.70
75262;DHT22;63859;51.064;4.580;2023-04-24T15:09:23;15.80;99.90
75262;DHT22;63859;51.064;4.580;2023-04-24T15:11:49;15.80;99.90
75262;DHT22;63859;51.064;4.580;2023-04-24T15:14:16;16.10;99.10
75262;DHT22;63859;51.064;4.580;2023-04-24T15:16:42;16.10;98.20
75262;DHT22;63859;51.064;4.580;2023-04-24T15:19:08;15.40;98.40
75262;DHT22;63859;51.064;4.580;2023-04-24T15:21:33;15.10;99.60
75262;DHT22;63859;51.064;4.580;2023-04-24T15:23:59;15.00;99.90
75262;DHT22;63859;51.064;4.580;2023-04-24T15:26:25;14.80;99.90
75262;DHT22;63859;51.064;4.580;2023-04-24T15:28:51;14.60;99.90
75262;DHT22;63859;51.064;4.580;2023-04-24T15:31:18;14.30;99.90
75262;DHT22;63859;51.064;4.580;2023-04-24T15:33:44;14.00;99.90
75262;DHT22;63859;51.064;4.580;2023-04-24T15:36:09;13.80;99.90
75262;DHT22;63859;51.064;4.580;2023-04-24T15:38:35;13.60;99.90
75262;DHT22;63859;51.064;4.580;2023-04-24T15:41:02;13.60;99.90
75262;DHT22;63859;51.064;4.580;2023-04-24T15:43:27;13.60;99.90
75262;DHT22;63859;51.064;4.580;2023-04-24T15:45:56;13.50;99.90
75262;DHT22;63859;51.064;4.580;2023-04-24T15:48:22;13.40;99.90
75262;DHT22;63859;51.064;4.580;2023-04-24T15:50:48;13.40;99.90
75262;DHT22;63859;51.064;4.580;2023-04-24T15:53:14;13.50;99.90